Etusivu
METAR-TAF:

METAR-TAF

Lentoasemat :

Lac Qui Parle County Airport

Madison, Minnesota, Yhdysvallat

Leveyspiiri: 44-59-10N, Pituuspiiri: 096-10-40W, korkeus merenpinnasta: 330 m

Tämänhetkinen sää

Tämä raportti tehtiin 15 minuuttia sitten, kello 23.35 UTC
Tuuli 29 kn pohjoisen/luoteesta puuskistuen 36 kn:hen
Lämpötila 18°C
Kosteus 32%
Ilmanpaine 1015 hPa
Näkyvyys: 16.1 km
Hajonneita pilviä 9500 ft:n korkeudessa

METAR: KDXX 252335Z AUTO 34029G36KT 10SM BKN095 18/01 A2996 RMK AO2

Aika: 18:50 (23:50 UTC)


TAF: puuttuu

Säähavainnot ja -ennusteet yli 4000 lentoasemalta (METAR- ja TAF-raportit).

Käytössä olevat sääasemat on merkitty karttaan keltaisilla ja punaisilla pisteillä.

Aseta hiiri pisteen päälle nähdäksesi sääaseman nimen.

Klikkaa sitten nähdäksesi säähavainnot ja -ennusteet.

Kartan vaihtaminen: klikkaa mustalla rastilla varustettuja vihreitä pisteitä, niin voit zoomata sisään; viivalla varustettua vihreää pistettä, niin voit zoomata ulos tai vihreitä nuolia, niin pääset viereisille kartoille.


METAR-TAF: